Brattleboro, VT (05302)

2:16 PM EDT on July 06, 2015 (GMT -0400)
High Point | | Change Station
CLOSE
Current Station
Personal Weather Station
Location: Vermont, VT
Elevation: 883 ft
Nearby Weather Stations

Elev 883 ft 42.84 °N, 72.59 °W | Updated 1 minute ago

Clear
Clear
81.0 °F
Feels Like 81 °F
N
0.0
Wind Variable Wind from SSW
Gusts 0.0 mph

Today
High -- | Low -- °F
--% Chance of Precip.
Yesterday
High -- | Low -- °F
Precip. -- in
5:18 AM 8:31 PM
Waning Gibbous, 73% visible
Pressure 30.16 in
Visibility 10.0 miles
Clouds Scattered Clouds 7000 ft
Heat Index 81 °F
Dew Point 60 °F
Humidity 48%
Rainfall 0.00 in
Snow Depth Not available.
UV 2.0 out of 12
Pollen 5.10 out of 12
Air Quality Not available.
Flu Activity Not available.
METAR KEEN 061755Z AUTO 23003KT 10SM SCT070 28/13 A3016 RMK AO1 10280 20150 57007

More Conditions Fewer Conditions

Pressure 30.16 in
Visibility 10.0 miles
Clouds Scattered Clouds 7000 ft
Heat Index 81 °F
Dew Point 60 °F
Humidity 48%
Rainfall 0.00 in
Snow Depth Not available.
UV 2.0 out of 12
Pollen 5.10 out of 12
Air Quality Not available.
Flu Activity Not available.
METAR KEEN 061755Z AUTO 23003KT 10SM SCT070 28/13 A3016 RMK AO1 10280 20150 57007

More Conditions Fewer Conditions

10-Day Weather Forecast

×

Almanac

Astronomy

Jul. 06, 2015 Rise Set
Actual Time
Civil Twilight
Nautical Twilight
Astronomical Twilight
Moon
Length of Visible Light
Length of Day
Tomorrow will be .
, % of the Moon is Illuminated

Today's Extremes

State Highs State Lows

Community

WunderPhotos

Upload Photos

1,835,610 photos uploaded!

WunderBlogs® & News

Nearby

Air Quality

  Air Quality AQ Index Pollutant
Not available.

Snow Depth

Station Depth Elevation

Earthquake Activity

City Distance Mag. Time & Date
Minimum magnitude displayed is 2.5.

Coastal Water Temperatures

Place Temperature

Stations

Nearby Weather Stations

Station Location Temp. Windchill Dew Point Humidity Wind Precip. Elev Updated Type